»·PEaware :: SWA2429 KOKC-KLAS

SWA2429 :: KOKC-KLAS

FLIGHT INFORMATION

Flight Status: Arrived
Operator:
Southwest Airlines
More flights by this operator :: More flights under this callsign
Pilot: Kevin M. (7)
Aircraft: BOEING 737-700
(B737)
More flights by this aircraft type
Origin: KOKC Will Rogers World
United States
Destination: KLAS McCarran Intl
United States
More flights between these airports :: More routes between these airports
Route: OLGUY PNH J6 ABQ J72 PGS TYSSN3
File this flight plan on PilotEdge
Remarks: Nothing to see here, keep working. / V /
Altitude:
(Current/Filed)
34,000ft
Speed:
(Current/Filed)
366kts
Departed: 21-May-13 10:32 AM
Arrived: 21-May-13 12:48 PM
Distance/Time
Traveled:
855nm/2:16
Distance/Time
To Go:
Arrived

Flight Plot

Page will automatically refresh every two minutes.


Map Options




Map Legend


Flown Route
Filed Route
Departure Airport
Arrival Airport
Navaid (VOR, NDB)
Fix

Horizontal Profiles

Position Reports

Time Latitude Longitude Heading Altitude Ground
Speed
21-May-13 10:19 35.394436 -97.595993 1 1302ft 0kts
21-May-13 10:20 35.394436 -97.595993 1 1302ft 0kts
21-May-13 10:21 35.394436 -97.595993 1 1302ft 0kts
21-May-13 10:22 35.394436 -97.595993 1 1302ft 0kts
21-May-13 10:23 35.394436 -97.595993 1 1302ft 0kts
21-May-13 10:24 35.394436 -97.595993 1 1302ft 0kts
21-May-13 10:25 35.394158 -97.596002 1 1302ft 2kts
21-May-13 10:26 35.393815 -97.596425 89 1302ft 0kts
21-May-13 10:27 35.393815 -97.596425 89 1302ft 0kts
21-May-13 10:28 35.392054 -97.595588 180 1302ft 14kts
21-May-13 10:29 35.389804 -97.599322 268 1302ft 25kts
21-May-13 10:30 35.387776 -97.603474 179 1302ft 30kts
21-May-13 10:31 35.380108 -97.603434 178 1302ft 20kts
21-May-13 10:32 35.379248 -97.604798 269 1302ft 3kts
21-May-13 10:33 35.385527 -97.605684 357 1303ft 104kts
21-May-13 10:34 35.428656 -97.606807 356 3390ft 184kts
21-May-13 10:35 35.451056 -97.668483 253 6299ft 268kts
21-May-13 10:36 35.435458 -97.760890 261 9977ft 291kts
21-May-13 10:37 35.421395 -97.866273 262 12537ft 341kts
21-May-13 10:38 35.408373 -97.960330 261 15762ft 344kts
21-May-13 10:39 35.388715 -98.099216 257 19569ft 359kts
21-May-13 10:40 35.371340 -98.222492 263 22331ft 373kts
21-May-13 10:41 35.367921 -98.329969 266 24210ft 388kts
21-May-13 10:42 35.363951 -98.487383 265 26607ft 403kts
21-May-13 10:43 35.360574 -98.603179 265 28139ft 411kts
21-May-13 10:44 35.356787 -98.744582 265 29728ft 420kts
21-May-13 10:45 35.351978 -98.912285 266 31658ft 420kts
21-May-13 10:46 35.348354 -99.030650 266 33134ft 415kts
21-May-13 10:47 35.344233 -99.171165 263 34173ft 424kts
21-May-13 10:48 35.339189 -99.316496 263 35432ft 424kts
21-May-13 10:49 35.336844 -99.383840 263 35992ft 424kts
21-May-13 10:50 35.328983 -99.604835 263 37666ft 422kts
21-May-13 10:51 35.323674 -99.748857 263 38044ft 424kts
21-May-13 10:52 35.318418 -99.887121 263 38051ft 421kts
21-May-13 10:53 35.312601 -100.035732 263 38054ft 421kts
21-May-13 10:54 35.306808 -100.178884 264 38071ft 421kts
21-May-13 10:55 35.300938 -100.320457 264 38068ft 420kts
21-May-13 10:56 35.294866 -100.462720 264 38078ft 420kts
21-May-13 10:57 35.288492 -100.607852 264 38085ft 421kts
21-May-13 10:58 35.282060 -100.750647 264 38086ft 420kts
21-May-13 10:59 35.275474 -100.892968 264 38089ft 419kts
21-May-13 11:00 35.268775 -101.034241 264 38086ft 418kts
21-May-13 11:01 35.261836 -101.177065 264 38083ft 418kts
21-May-13 11:02 35.254835 -101.319256 265 38076ft 417kts
21-May-13 11:03 35.247947 -101.457707 265 38073ft 416kts
21-May-13 11:04 35.240514 -101.597678 265 38063ft 414kts
21-May-13 11:05 35.233703 -101.741139 267 38062ft 415kts
21-May-13 11:06 35.230881 -101.882967 267 38062ft 414kts
21-May-13 11:07 35.227678 -102.022767 267 38067ft 414kts
21-May-13 11:08 35.224423 -102.164158 267 38068ft 413kts
21-May-13 11:09 35.221254 -102.304924 267 38071ft 413kts
21-May-13 11:10 35.217757 -102.444772 267 38075ft 413kts
21-May-13 11:11 35.214028 -102.585520 267 38077ft 412kts
21-May-13 11:12 35.209456 -102.748530 268 38087ft 413kts
21-May-13 11:13 35.206089 -102.864831 268 38088ft 412kts
21-May-13 11:14 35.201834 -103.005857 269 38090ft 413kts
21-May-13 11:15 35.197439 -103.146182 269 38092ft 414kts
21-May-13 11:16 35.193113 -103.287055 270 38091ft 415kts
21-May-13 11:17 35.188290 -103.428553 270 38090ft 417kts
21-May-13 11:18 35.183224 -103.570293 270 38090ft 416kts
21-May-13 11:19 35.178688 -103.711373 270 38089ft 416kts
21-May-13 11:20 35.174049 -103.852798 270 38091ft 416kts
21-May-13 11:21 35.169196 -103.994583 270 38092ft 416kts
21-May-13 11:22 35.164718 -104.136065 270 38104ft 419kts
21-May-13 11:23 35.159940 -104.278132 270 38103ft 419kts
21-May-13 11:24 35.154841 -104.421472 270 38106ft 421kts
21-May-13 11:25 35.149621 -104.563347 270 38097ft 420kts
21-May-13 11:26 35.144183 -104.705725 268 38078ft 423kts
21-May-13 11:27 35.138504 -104.849292 268 38066ft 424kts
21-May-13 11:28 35.132638 -104.993618 268 38052ft 424kts
21-May-13 11:29 35.126645 -105.136957 267 38044ft 425kts
21-May-13 11:30 35.120533 -105.279044 267 38026ft 425kts
21-May-13 11:31 35.114029 -105.426081 266 38004ft 426kts
21-May-13 11:32 35.107450 -105.570902 266 37998ft 426kts
21-May-13 11:33 35.100722 -105.715253 266 37996ft 426kts
21-May-13 11:34 35.093822 -105.859632 266 37996ft 426kts
21-May-13 11:35 35.086762 -106.003759 266 38003ft 425kts
21-May-13 11:36 35.079532 -106.147939 266 37997ft 426kts
21-May-13 11:37 35.072351 -106.285777 268 38057ft 418kts
21-May-13 11:38 35.064541 -106.433433 270 38109ft 422kts
21-May-13 11:39 35.057181 -106.576827 271 38156ft 423kts
21-May-13 11:40 35.049402 -106.717051 271 38163ft 422kts
21-May-13 11:41 35.054772 -106.860720 286 38163ft 412kts
21-May-13 11:42 35.083283 -106.995014 288 38163ft 411kts
21-May-13 11:43 35.109315 -107.115521 288 38164ft 411kts
21-May-13 11:44 35.141741 -107.266237 288 38163ft 411kts
21-May-13 11:45 35.170654 -107.401052 287 38173ft 407kts
21-May-13 11:46 35.199140 -107.535392 287 38188ft 407kts
21-May-13 11:47 35.227363 -107.669244 287 38190ft 406kts
21-May-13 11:48 35.255841 -107.802680 287 38195ft 406kts
21-May-13 11:49 35.284109 -107.936717 287 38200ft 405kts
21-May-13 11:50 35.311734 -108.068901 287 38207ft 405kts
21-May-13 11:51 35.339403 -108.202207 287 38209ft 404kts
21-May-13 11:52 35.367093 -108.336453 287 38209ft 401kts
21-May-13 11:53 35.394252 -108.468946 287 38209ft 402kts
21-May-13 11:54 35.421476 -108.601326 286 38208ft 400kts
21-May-13 11:55 35.448200 -108.733846 286 38208ft 401kts
21-May-13 11:56 35.474130 -108.867050 282 38207ft 402kts
21-May-13 11:57 35.482619 -109.004568 277 38207ft 405kts
21-May-13 11:58 35.489233 -109.142164 277 38206ft 405kts
21-May-13 11:59 35.495539 -109.276318 277 38205ft 404kts
21-May-13 12:00 35.502555 -109.418071 277 38205ft 404kts
21-May-13 12:01 35.509016 -109.555736 277 38205ft 404kts
21-May-13 12:02 35.515249 -109.691072 277 38205ft 404kts
21-May-13 12:12 35.566462 -111.058778 275 40197ft 397kts
21-May-13 12:13 35.570647 -111.194327 275 40210ft 396kts
21-May-13 12:14 35.574666 -111.329509 275 40216ft 396kts
21-May-13 12:15 35.578526 -111.464421 275 40231ft 396kts
21-May-13 12:16 35.582494 -111.599428 275 40231ft 395kts
21-May-13 12:17 35.585943 -111.734366 275 40232ft 396kts
21-May-13 12:18 35.590152 -111.869102 278 40228ft 394kts
21-May-13 12:19 35.596160 -112.003143 275 40230ft 395kts
21-May-13 12:20 35.599338 -112.138832 274 40226ft 395kts
21-May-13 12:21 35.602338 -112.274153 274 40228ft 395kts
21-May-13 12:22 35.605274 -112.409036 274 40226ft 395kts
21-May-13 12:23 35.608031 -112.543938 274 40173ft 394kts
21-May-13 12:24 35.610523 -112.677723 273 40065ft 392kts
21-May-13 12:25 35.612913 -112.811489 273 40024ft 391kts
21-May-13 12:26 35.615577 -112.942071 273 40001ft 362kts
21-May-13 12:27 35.617687 -113.060230 274 40011ft 343kts
21-May-13 12:28 35.620042 -113.178566 276 39987ft 344kts
21-May-13 12:29 35.622632 -113.303116 274 35969ft 390kts
21-May-13 12:30 35.623729 -113.439823 275 32202ft 410kts
21-May-13 12:31 35.630684 -113.578199 282 29029ft 404kts
21-May-13 12:32 35.649893 -113.717566 280 24495ft 419kts
21-May-13 12:33 35.669331 -113.856772 280 21038ft 401kts
21-May-13 12:34 35.688324 -113.991991 280 18020ft 378kts
21-May-13 12:35 35.705572 -114.113166 280 16201ft 344kts
21-May-13 12:36 35.721013 -114.224755 280 14466ft 319kts
21-May-13 12:37 35.735203 -114.329469 279 12858ft 300kts
21-May-13 12:38 35.786961 -114.400459 325 11999ft 283kts
21-May-13 12:39 35.852792 -114.434635 339 11971ft 237kts
21-May-13 12:40 35.914041 -114.461721 339 12010ft 239kts
21-May-13 12:41 35.979715 -114.493815 337 9980ft 281kts
21-May-13 12:42 36.044745 -114.546110 293 7727ft 285kts
21-May-13 12:43 36.059561 -114.641549 280 6108ft 277kts
21-May-13 12:44 36.074838 -114.744290 273 7585ft 347kts
21-May-13 12:45 36.073961 -114.855744 269 7525ft 307kts
21-May-13 12:46 36.075353 -114.955684 268 5297ft 294kts
21-May-13 12:47 36.074551 -115.050558 269 3194ft 237kts
21-May-13 12:48 36.073655 -115.121950 272 2303ft 178kts
21-May-13 12:49 36.073720 -115.154762 276 2189ft 28kts
21-May-13 12:50 36.076230 -115.157353 318 2189ft 20kts
21-May-13 12:51 36.077940 -115.156004 90 2189ft 28kts
21-May-13 12:52 36.081354 -115.150596 48 2189ft 18kts
21-May-13 12:53 36.082574 -115.150234 294 2189ft 0kts
21-May-13 12:54 36.082575 -115.150235 294 2189ft 0kts

Navigation Log

Ident Type
1. KOKC Airport
2. PNH Navaid
3. TCC Navaid
4. ABQ Navaid
5. LORAT Fix
6. GUP Navaid
7. DILCO Fix
8. BAVPE Fix
9. MOSBI Fix
10. CUTRO Fix
11. PGS Navaid
12. CEJAY Fix
13. KADDY Fix
14. TYSSN Fix
15. SUZSI Fix
16. PRINO Fix
17. KLAS Airport